sensor_id;sensor_type;location;lat;lon;timestamp;pressure;altitude;pressure_sealevel;temperature;humidity
28354;BME280;15603;50.878;8.036;2023-11-21T00:00:14;143068.16;;;-0.85;100.00
28354;BME280;15603;50.878;8.036;2023-11-21T00:02:43;143063.34;;;-0.87;100.00
28354;BME280;15603;50.878;8.036;2023-11-21T00:05:12;142983.84;;;-1.21;100.00
28354;BME280;15603;50.878;8.036;2023-11-21T00:07:41;142935.66;;;-1.42;100.00
28354;BME280;15603;50.878;8.036;2023-11-21T00:10:10;143012.75;;;-1.09;100.00
28354;BME280;15603;50.878;8.036;2023-11-21T00:12:38;142991.06;;;-1.18;100.00
28354;BME280;15603;50.878;8.036;2023-11-21T00:15:05;142983.84;;;-1.21;100.00
28354;BME280;15603;50.878;8.036;2023-11-21T00:17:40;142976.59;;;-1.24;100.00
28354;BME280;15603;50.878;8.036;2023-11-21T00:20:08;142964.53;;;-1.29;100.00
28354;BME280;15603;50.878;8.036;2023-11-21T00:22:36;142862.19;;;-1.73;100.00
28354;BME280;15603;50.878;8.036;2023-11-21T00:25:03;142945.28;;;-1.38;100.00
28354;BME280;15603;50.878;8.036;2023-11-21T00:27:31;142939.28;;;-1.40;100.00
28354;BME280;15603;50.878;8.036;2023-11-21T00:29:58;142933.22;;;-1.43;100.00
28354;BME280;15603;50.878;8.036;2023-11-21T00:32:25;142933.22;;;-1.43;100.00
28354;BME280;15603;50.878;8.036;2023-11-21T00:34:52;142942.91;;;-1.39;100.00
28354;BME280;15603;50.878;8.036;2023-11-21T00:37:19;142947.72;;;-1.36;100.00
28354;BME280;15603;50.878;8.036;2023-11-21T00:39:47;142950.09;;;-1.35;100.00
28354;BME280;15603;50.878;8.036;2023-11-21T00:42:14;142953.72;;;-1.34;100.00
28354;BME280;15603;50.878;8.036;2023-11-21T00:44:41;142945.28;;;-1.38;100.00
28354;BME280;15603;50.878;8.036;2023-11-21T00:47:08;142959.72;;;-1.31;100.00
28354;BME280;15603;50.878;8.036;2023-11-21T00:49:36;142964.53;;;-1.29;100.00
28354;BME280;15603;50.878;8.036;2023-11-21T00:52:03;142952.53;;;-1.34;100.00
28354;BME280;15603;50.878;8.036;2023-11-21T00:54:31;142976.59;;;-1.24;100.00
28354;BME280;15603;50.878;8.036;2023-11-21T00:57:01;142998.31;;;-1.15;100.00
28354;BME280;15603;50.878;8.036;2023-11-21T00:59:28;143012.75;;;-1.09;100.00
28354;BME280;15603;50.878;8.036;2023-11-21T01:01:55;143024.81;;;-1.04;100.00
28354;BME280;15603;50.878;8.036;2023-11-21T01:04:22;142991.06;;;-1.18;100.00
28354;BME280;15603;50.878;8.036;2023-11-21T01:06:49;142999.50;;;-1.14;100.00
28354;BME280;15603;50.878;8.036;2023-11-21T01:09:16;143003.13;;;-1.13;100.00
28354;BME280;15603;50.878;8.036;2023-11-21T01:11:45;143022.38;;;-1.05;100.00
28354;BME280;15603;50.878;8.036;2023-11-21T01:14:13;143017.56;;;-1.07;100.00
28354;BME280;15603;50.878;8.036;2023-11-21T01:16:41;143003.13;;;-1.13;100.00
28354;BME280;15603;50.878;8.036;2023-11-21T01:19:08;143003.13;;;-1.13;100.00
28354;BME280;15603;50.878;8.036;2023-11-21T01:21:36;142986.25;;;-1.20;100.00
28354;BME280;15603;50.878;8.036;2023-11-21T01:24:04;142981.41;;;-1.22;100.00
28354;BME280;15603;50.878;8.036;2023-11-21T01:26:34;142986.25;;;-1.20;100.00
28354;BME280;15603;50.878;8.036;2023-11-21T01:29:01;142980.22;;;-1.23;100.00
28354;BME280;15603;50.878;8.036;2023-11-21T01:31:28;142970.59;;;-1.27;100.00
28354;BME280;15603;50.878;8.036;2023-11-21T01:33:56;142844.13;;;-1.81;100.00
28354;BME280;15603;50.878;8.036;2023-11-21T01:36:30;142953.72;;;-1.34;100.00
28354;BME280;15603;50.878;8.036;2023-11-21T01:38:59;142964.53;;;-1.29;100.00
28354;BME280;15603;50.878;8.036;2023-11-21T01:41:27;142964.53;;;-1.29;100.00
28354;BME280;15603;50.878;8.036;2023-11-21T01:43:56;142957.34;;;-1.32;100.00
28354;BME280;15603;50.878;8.036;2023-11-21T01:46:24;142966.97;;;-1.28;100.00
28354;BME280;15603;50.878;8.036;2023-11-21T01:48:52;142977.78;;;-1.24;100.00
28354;BME280;15603;50.878;8.036;2023-11-21T01:51:20;142991.06;;;-1.18;100.00
28354;BME280;15603;50.878;8.036;2023-11-21T01:53:47;142995.88;;;-1.16;100.00
28354;BME280;15603;50.878;8.036;2023-11-21T01:56:16;143001.91;;;-1.13;100.00
28354;BME280;15603;50.878;8.036;2023-11-21T01:58:43;143003.13;;;-1.13;100.00
28354;BME280;15603;50.878;8.036;2023-11-21T02:01:11;142999.50;;;-1.14;100.00
28354;BME280;15603;50.878;8.036;2023-11-21T02:03:38;142979.03;;;-1.23;100.00
28354;BME280;15603;50.878;8.036;2023-11-21T02:06:07;142992.25;;;-1.17;100.00
28354;BME280;15603;50.878;8.036;2023-11-21T02:08:35;142986.25;;;-1.20;100.00
28354;BME280;15603;50.878;8.036;2023-11-21T02:11:05;142981.41;;;-1.22;100.00
28354;BME280;15603;50.878;8.036;2023-11-21T02:13:32;142954.91;;;-1.33;100.00
28354;BME280;15603;50.878;8.036;2023-11-21T02:16:01;142889.91;;;-1.61;100.00
28354;BME280;15603;50.878;8.036;2023-11-21T02:18:29;142971.78;;;-1.26;100.00
28354;BME280;15603;50.878;8.036;2023-11-21T02:20:56;142976.59;;;-1.24;100.00
28354;BME280;15603;50.878;8.036;2023-11-21T02:23:23;142983.84;;;-1.21;100.00
28354;BME280;15603;50.878;8.036;2023-11-21T02:25:55;142991.06;;;-1.18;100.00
28354;BME280;15603;50.878;8.036;2023-11-21T02:28:23;142983.84;;;-1.21;100.00
28354;BME280;15603;50.878;8.036;2023-11-21T02:30:53;142982.63;;;-1.22;100.00
28354;BME280;15603;50.878;8.036;2023-11-21T02:33:24;142977.78;;;-1.24;100.00
28354;BME280;15603;50.878;8.036;2023-11-21T02:35:53;142971.78;;;-1.26;100.00
28354;BME280;15603;50.878;8.036;2023-11-21T02:38:21;142976.59;;;-1.24;100.00
28354;BME280;15603;50.878;8.036;2023-11-21T02:40:50;142976.59;;;-1.24;100.00
28354;BME280;15603;50.878;8.036;2023-11-21T02:43:17;142971.78;;;-1.26;100.00
28354;BME280;15603;50.878;8.036;2023-11-21T02:45:44;142968.16;;;-1.28;100.00
28354;BME280;15603;50.878;8.036;2023-11-21T02:48:12;142966.97;;;-1.28;100.00
28354;BME280;15603;50.878;8.036;2023-11-21T02:50:39;142970.59;;;-1.27;100.00
28354;BME280;15603;50.878;8.036;2023-11-21T02:53:07;142965.78;;;-1.29;100.00
28354;BME280;15603;50.878;8.036;2023-11-21T02:55:34;142969.34;;;-1.27;100.00
28354;BME280;15603;50.878;8.036;2023-11-21T02:58:02;142954.91;;;-1.33;100.00
28354;BME280;15603;50.878;8.036;2023-11-21T03:00:30;142966.97;;;-1.28;100.00
28354;BME280;15603;50.878;8.036;2023-11-21T03:02:57;142952.53;;;-1.34;100.00
28354;BME280;15603;50.878;8.036;2023-11-21T03:05:25;142901.91;;;-1.56;100.00
28354;BME280;15603;50.878;8.036;2023-11-21T03:07:53;142945.28;;;-1.38;100.00
28354;BME280;15603;50.878;8.036;2023-11-21T03:10:20;142950.09;;;-1.35;100.00
28354;BME280;15603;50.878;8.036;2023-11-21T03:12:47;142953.72;;;-1.34;100.00
28354;BME280;15603;50.878;8.036;2023-11-21T03:15:14;142965.78;;;-1.29;100.00
28354;BME280;15603;50.878;8.036;2023-11-21T03:17:42;142971.78;;;-1.26;100.00
28354;BME280;15603;50.878;8.036;2023-11-21T03:20:10;142972.97;;;-1.26;100.00
28354;BME280;15603;50.878;8.036;2023-11-21T03:22:38;142966.97;;;-1.28;100.00
28354;BME280;15603;50.878;8.036;2023-11-21T03:25:07;142945.28;;;-1.38;100.00
28354;BME280;15603;50.878;8.036;2023-11-21T03:27:37;142976.59;;;-1.24;100.00
28354;BME280;15603;50.878;8.036;2023-11-21T03:30:08;142975.41;;;-1.25;100.00
28354;BME280;15603;50.878;8.036;2023-11-21T03:32:35;142960.97;;;-1.31;100.00
28354;BME280;15603;50.878;8.036;2023-11-21T03:35:03;142901.91;;;-1.56;100.00
28354;BME280;15603;50.878;8.036;2023-11-21T03:37:30;142974.19;;;-1.25;100.00
28354;BME280;15603;50.878;8.036;2023-11-21T03:39:57;142970.59;;;-1.27;100.00
28354;BME280;15603;50.878;8.036;2023-11-21T03:42:25;142972.97;;;-1.26;100.00
28354;BME280;15603;50.878;8.036;2023-11-21T03:44:55;142988.66;;;-1.19;100.00
28354;BME280;15603;50.878;8.036;2023-11-21T03:47:22;142981.41;;;-1.22;100.00
28354;BME280;15603;50.878;8.036;2023-11-21T03:49:49;142993.47;;;-1.17;100.00
28354;BME280;15603;50.878;8.036;2023-11-21T03:52:17;142989.84;;;-1.19;100.00
28354;BME280;15603;50.878;8.036;2023-11-21T03:54:45;142991.06;;;-1.18;100.00
28354;BME280;15603;50.878;8.036;2023-11-21T03:57:12;142988.66;;;-1.19;100.00
28354;BME280;15603;50.878;8.036;2023-11-21T03:59:40;142988.66;;;-1.19;100.00
28354;BME280;15603;50.878;8.036;2023-11-21T04:02:08;142988.66;;;-1.19;100.00
28354;BME280;15603;50.878;8.036;2023-11-21T04:04:36;142995.88;;;-1.16;100.00
28354;BME280;15603;50.878;8.036;2023-11-21T04:07:03;142989.84;;;-1.19;100.00
28354;BME280;15603;50.878;8.036;2023-11-21T04:09:31;142995.88;;;-1.16;100.00
28354;BME280;15603;50.878;8.036;2023-11-21T04:11:58;142989.84;;;-1.19;100.00
28354;BME280;15603;50.878;8.036;2023-11-21T04:14:26;142986.25;;;-1.20;100.00
28354;BME280;15603;50.878;8.036;2023-11-21T04:16:54;142959.72;;;-1.31;100.00
28354;BME280;15603;50.878;8.036;2023-11-21T04:19:21;142983.84;;;-1.21;100.00
28354;BME280;15603;50.878;8.036;2023-11-21T04:21:49;142983.84;;;-1.21;100.00
28354;BME280;15603;50.878;8.036;2023-11-21T04:24:16;142981.41;;;-1.22;100.00
28354;BME280;15603;50.878;8.036;2023-11-21T04:26:44;142992.25;;;-1.17;100.00
28354;BME280;15603;50.878;8.036;2023-11-21T04:29:11;142987.44;;;-1.20;100.00
28354;BME280;15603;50.878;8.036;2023-11-21T04:31:38;142983.84;;;-1.21;100.00
28354;BME280;15603;50.878;8.036;2023-11-21T04:34:05;142913.97;;;-1.51;100.00
28354;BME280;15603;50.878;8.036;2023-11-21T04:36:32;142981.41;;;-1.22;100.00
28354;BME280;15603;50.878;8.036;2023-11-21T04:38:59;142979.03;;;-1.23;100.00
28354;BME280;15603;50.878;8.036;2023-11-21T04:41:26;142983.84;;;-1.21;100.00
28354;BME280;15603;50.878;8.036;2023-11-21T04:43:54;142980.22;;;-1.23;100.00
28354;BME280;15603;50.878;8.036;2023-11-21T04:46:21;142957.34;;;-1.32;100.00
28354;BME280;15603;50.878;8.036;2023-11-21T04:48:48;142976.59;;;-1.24;100.00
28354;BME280;15603;50.878;8.036;2023-11-21T04:51:16;142977.78;;;-1.24;100.00
28354;BME280;15603;50.878;8.036;2023-11-21T04:53:43;142976.59;;;-1.24;100.00
28354;BME280;15603;50.878;8.036;2023-11-21T04:56:10;142971.78;;;-1.26;100.00
28354;BME280;15603;50.878;8.036;2023-11-21T04:58:38;142981.41;;;-1.22;100.00
28354;BME280;15603;50.878;8.036;2023-11-21T05:01:09;142942.91;;;-1.39;100.00
28354;BME280;15603;50.878;8.036;2023-11-21T05:03:36;142974.19;;;-1.25;100.00
28354;BME280;15603;50.878;8.036;2023-11-21T05:06:06;142983.84;;;-1.21;100.00
28354;BME280;15603;50.878;8.036;2023-11-21T05:08:33;142989.84;;;-1.19;100.00
28354;BME280;15603;50.878;8.036;2023-11-21T05:11:00;142983.84;;;-1.21;100.00
28354;BME280;15603;50.878;8.036;2023-11-21T05:13:27;142980.22;;;-1.23;100.00
28354;BME280;15603;50.878;8.036;2023-11-21T05:15:55;142991.06;;;-1.18;100.00
28354;BME280;15603;50.878;8.036;2023-11-21T05:18:25;142994.66;;;-1.16;100.00
28354;BME280;15603;50.878;8.036;2023-11-21T05:20:57;142998.31;;;-1.15;100.00
28354;BME280;15603;50.878;8.036;2023-11-21T05:23:25;142966.97;;;-1.28;100.00
28354;BME280;15603;50.878;8.036;2023-11-21T05:25:52;142989.84;;;-1.19;100.00
28354;BME280;15603;50.878;8.036;2023-11-21T05:28:19;142989.84;;;-1.19;100.00
28354;BME280;15603;50.878;8.036;2023-11-21T05:30:47;142988.66;;;-1.19;100.00
28354;BME280;15603;50.878;8.036;2023-11-21T05:33:14;142982.63;;;-1.22;100.00
28354;BME280;15603;50.878;8.036;2023-11-21T05:35:41;142983.84;;;-1.21;100.00
28354;BME280;15603;50.878;8.036;2023-11-21T05:38:08;142991.06;;;-1.18;100.00
28354;BME280;15603;50.878;8.036;2023-11-21T05:40:35;142988.66;;;-1.19;100.00
28354;BME280;15603;50.878;8.036;2023-11-21T05:43:04;143005.50;;;-1.12;100.00
28354;BME280;15603;50.878;8.036;2023-11-21T05:45:32;142986.25;;;-1.20;100.00
28354;BME280;15603;50.878;8.036;2023-11-21T05:47:59;142993.47;;;-1.17;100.00
28354;BME280;15603;50.878;8.036;2023-11-21T05:50:26;142844.13;;;-1.81;100.00
28354;BME280;15603;50.878;8.036;2023-11-21T05:52:53;142989.84;;;-1.19;100.00
28354;BME280;15603;50.878;8.036;2023-11-21T05:55:22;142880.25;;;-1.65;100.00
28354;BME280;15603;50.878;8.036;2023-11-21T05:57:52;142847.72;;;-1.79;100.00
28354;BME280;15603;50.878;8.036;2023-11-21T06:00:21;142994.66;;;-1.16;100.00
28354;BME280;15603;50.878;8.036;2023-11-21T06:02:54;142985.03;;;-1.21;100.00
28354;BME280;15603;50.878;8.036;2023-11-21T06:05:23;142994.66;;;-1.16;100.00
28354;BME280;15603;50.878;8.036;2023-11-21T06:07:55;142998.31;;;-1.15;100.00
28354;BME280;15603;50.878;8.036;2023-11-21T06:10:26;142999.50;;;-1.14;100.00
28354;BME280;15603;50.878;8.036;2023-11-21T06:12:53;142993.47;;;-1.17;100.00
28354;BME280;15603;50.878;8.036;2023-11-21T06:15:21;143000.69;;;-1.14;100.00
28354;BME280;15603;50.878;8.036;2023-11-21T06:17:51;143005.50;;;-1.12;100.00
28354;BME280;15603;50.878;8.036;2023-11-21T06:20:21;143007.94;;;-1.11;100.00
28354;BME280;15603;50.878;8.036;2023-11-21T06:22:50;143005.50;;;-1.12;100.00
28354;BME280;15603;50.878;8.036;2023-11-21T06:25:17;143005.50;;;-1.12;100.00
28354;BME280;15603;50.878;8.036;2023-11-21T06:27:46;142987.44;;;-1.20;100.00
28354;BME280;15603;50.878;8.036;2023-11-21T06:30:15;142995.88;;;-1.16;100.00
28354;BME280;15603;50.878;8.036;2023-11-21T06:32:43;142993.47;;;-1.17;100.00
28354;BME280;15603;50.878;8.036;2023-11-21T06:35:14;142995.88;;;-1.16;100.00
28354;BME280;15603;50.878;8.036;2023-11-21T06:37:43;142913.97;;;-1.51;100.00
28354;BME280;15603;50.878;8.036;2023-11-21T06:40:17;142995.88;;;-1.16;100.00
28354;BME280;15603;50.878;8.036;2023-11-21T06:42:48;142995.88;;;-1.16;100.00
28354;BME280;15603;50.878;8.036;2023-11-21T06:45:16;142994.66;;;-1.16;100.00
28354;BME280;15603;50.878;8.036;2023-11-21T06:47:43;142982.63;;;-1.22;100.00
28354;BME280;15603;50.878;8.036;2023-11-21T06:50:13;143003.13;;;-1.13;100.00
28354;BME280;15603;50.878;8.036;2023-11-21T06:52:40;143003.13;;;-1.13;100.00
28354;BME280;15603;50.878;8.036;2023-11-21T06:55:07;143010.31;;;-1.10;100.00
28354;BME280;15603;50.878;8.036;2023-11-21T06:57:37;143012.75;;;-1.09;100.00
28354;BME280;15603;50.878;8.036;2023-11-21T07:00:05;142964.53;;;-1.29;100.00
28354;BME280;15603;50.878;8.036;2023-11-21T07:02:35;143005.50;;;-1.12;100.00
28354;BME280;15603;50.878;8.036;2023-11-21T07:05:03;143006.75;;;-1.11;100.00
28354;BME280;15603;50.878;8.036;2023-11-21T07:07:30;143018.75;;;-1.06;100.00
28354;BME280;15603;50.878;8.036;2023-11-21T07:09:57;143016.38;;;-1.07;100.00
28354;BME280;15603;50.878;8.036;2023-11-21T07:12:24;143007.94;;;-1.11;100.00
28354;BME280;15603;50.878;8.036;2023-11-21T07:14:52;143017.56;;;-1.07;100.00
28354;BME280;15603;50.878;8.036;2023-11-21T07:17:20;143015.19;;;-1.08;100.00
28354;BME280;15603;50.878;8.036;2023-11-21T07:19:50;143022.38;;;-1.05;100.00
28354;BME280;15603;50.878;8.036;2023-11-21T07:22:18;143030.81;;;-1.01;100.00
28354;BME280;15603;50.878;8.036;2023-11-21T07:24:51;143033.25;;;-1.00;100.00
28354;BME280;15603;50.878;8.036;2023-11-21T07:27:18;143036.81;;;-0.99;100.00
28354;BME280;15603;50.878;8.036;2023-11-21T07:29:45;143039.25;;;-0.97;100.00
28354;BME280;15603;50.878;8.036;2023-11-21T07:32:12;143034.44;;;-1.00;100.00
28354;BME280;15603;50.878;8.036;2023-11-21T07:34:41;142987.44;;;-1.20;100.00
28354;BME280;15603;50.878;8.036;2023-11-21T07:37:08;143053.72;;;-0.91;100.00
28354;BME280;15603;50.878;8.036;2023-11-21T07:39:35;143056.13;;;-0.90;100.00
28354;BME280;15603;50.878;8.036;2023-11-21T07:42:03;143060.97;;;-0.88;100.00
28354;BME280;15603;50.878;8.036;2023-11-21T07:44:31;143068.16;;;-0.85;100.00
28354;BME280;15603;50.878;8.036;2023-11-21T07:46:58;143072.97;;;-0.83;100.00
28354;BME280;15603;50.878;8.036;2023-11-21T07:49:25;143081.41;;;-0.80;100.00
28354;BME280;15603;50.878;8.036;2023-11-21T07:51:53;143009.13;;;-1.10;100.00
28354;BME280;15603;50.878;8.036;2023-11-21T07:54:20;143113.94;;;-0.66;100.00
28354;BME280;15603;50.878;8.036;2023-11-21T07:56:48;143115.19;;;-0.65;100.00
28354;BME280;15603;50.878;8.036;2023-11-21T07:59:15;143111.56;;;-0.67;100.00
28354;BME280;15603;50.878;8.036;2023-11-21T08:01:42;143109.13;;;-0.68;100.00
28354;BME280;15603;50.878;8.036;2023-11-21T08:04:10;143142.91;;;-0.53;100.00
28354;BME280;15603;50.878;8.036;2023-11-21T08:06:37;143140.47;;;-0.54;100.00
28354;BME280;15603;50.878;8.036;2023-11-21T08:09:04;143147.72;;;-0.51;100.00
28354;BME280;15603;50.878;8.036;2023-11-21T08:11:31;143174.25;;;-0.40;100.00
28354;BME280;15603;50.878;8.036;2023-11-21T08:14:00;143164.59;;;-0.44;100.00
28354;BME280;15603;50.878;8.036;2023-11-21T08:16:27;143171.81;;;-0.41;100.00
28354;BME280;15603;50.878;8.036;2023-11-21T08:18:54;143181.44;;;-0.37;100.00
28354;BME280;15603;50.878;8.036;2023-11-21T08:21:22;143182.69;;;-0.36;100.00
28354;BME280;15603;50.878;8.036;2023-11-21T08:23:51;143193.53;;;-0.32;100.00
28354;BME280;15603;50.878;8.036;2023-11-21T08:26:22;143252.59;;;-0.07;100.00
28354;BME280;15603;50.878;8.036;2023-11-21T08:28:49;143179.06;;;-0.38;100.00
28354;BME280;15603;50.878;8.036;2023-11-21T08:31:24;143330.97;;;0.27;100.00
28354;BME280;15603;50.878;8.036;2023-11-21T08:33:52;143386.47;;;0.50;100.00
28354;BME280;15603;50.878;8.036;2023-11-21T08:36:22;143304.41;;;0.15;100.00
28354;BME280;15603;50.878;8.036;2023-11-21T08:38:51;143438.34;;;0.72;100.00
28354;BME280;15603;50.878;8.036;2023-11-21T08:41:21;143463.69;;;0.83;100.00
28354;BME280;15603;50.878;8.036;2023-11-21T08:43:51;143469.72;;;0.86;100.00
28354;BME280;15603;50.878;8.036;2023-11-21T08:46:20;143504.72;;;1.01;100.00
28354;BME280;15603;50.878;8.036;2023-11-21T08:48:47;143492.63;;;0.95;100.00
28354;BME280;15603;50.878;8.036;2023-11-21T08:51:15;143516.75;;;1.06;100.00
28354;BME280;15603;50.878;8.036;2023-11-21T08:53:43;143428.69;;;0.68;100.00
28354;BME280;15603;50.878;8.036;2023-11-21T08:56:14;143438.34;;;0.72;100.00
28354;BME280;15603;50.878;8.036;2023-11-21T08:58:41;143447.97;;;0.76;100.00
28354;BME280;15603;50.878;8.036;2023-11-21T09:01:09;143425.06;;;0.67;100.00
28354;BME280;15603;50.878;8.036;2023-11-21T09:03:36;143421.44;;;0.65;100.00
28354;BME280;15603;50.878;8.036;2023-11-21T09:06:03;143420.25;;;0.65;100.00
28354;BME280;15603;50.878;8.036;2023-11-21T09:08:31;143444.34;;;0.75;100.00
28354;BME280;15603;50.878;8.036;2023-11-21T09:10:58;143454.03;;;0.79;100.00
28354;BME280;15603;50.878;8.036;2023-11-21T09:13:26;143449.19;;;0.77;100.00
28354;BME280;15603;50.878;8.036;2023-11-21T09:15:53;143454.03;;;0.79;100.00
28354;BME280;15603;50.878;8.036;2023-11-21T09:18:20;143501.09;;;0.99;100.00
28354;BME280;15603;50.878;8.036;2023-11-21T09:20:47;143519.19;;;1.07;100.00
28354;BME280;15603;50.878;8.036;2023-11-21T09:23:14;143537.28;;;1.14;100.00
28354;BME280;15603;50.878;8.036;2023-11-21T09:25:42;143567.47;;;1.27;100.00
28354;BME280;15603;50.878;8.036;2023-11-21T09:28:13;143583.16;;;1.34;100.00
28354;BME280;15603;50.878;8.036;2023-11-21T09:30:40;143616.97;;;1.48;100.00
28354;BME280;15603;50.878;8.036;2023-11-21T09:33:08;143653.19;;;1.64;100.00
28354;BME280;15603;50.878;8.036;2023-11-21T09:35:37;143688.19;;;1.79;100.00
28354;BME280;15603;50.878;8.036;2023-11-21T09:38:05;143635.09;;;1.56;100.00
28354;BME280;15603;50.878;8.036;2023-11-21T09:40:38;143643.50;;;1.60;100.00
28354;BME280;15603;50.878;8.036;2023-11-21T09:43:09;143572.31;;;1.29;100.00
28354;BME280;15603;50.878;8.036;2023-11-21T09:45:54;143672.50;;;1.72;100.00
28354;BME280;15603;50.878;8.036;2023-11-21T09:48:24;143694.25;;;1.81;100.00
28354;BME280;15603;50.878;8.036;2023-11-21T09:50:53;143682.16;;;1.76;100.00
28354;BME280;15603;50.878;8.036;2023-11-21T09:53:21;143531.28;;;1.12;100.00
28354;BME280;15603;50.878;8.036;2023-11-21T09:55:52;143656.78;;;1.65;100.00
28354;BME280;15603;50.878;8.036;2023-11-21T09:58:20;143618.19;;;1.49;100.00
28354;BME280;15603;50.878;8.036;2023-11-21T10:00:53;143594.00;;;1.38;100.00
28354;BME280;15603;50.878;8.036;2023-11-21T10:03:21;143511.94;;;1.04;100.00
28354;BME280;15603;50.878;8.036;2023-11-21T10:05:50;143565.06;;;1.26;100.00
28354;BME280;15603;50.878;8.036;2023-11-21T10:08:19;143574.69;;;1.30;100.00
28354;BME280;15603;50.878;8.036;2023-11-21T10:10:51;143585.59;;;1.35;100.00
28354;BME280;15603;50.878;8.036;2023-11-21T10:13:20;143583.16;;;1.34;100.00
28354;BME280;15603;50.878;8.036;2023-11-21T10:15:50;143589.19;;;1.36;100.00
28354;BME280;15603;50.878;8.036;2023-11-21T10:18:18;143561.41;;;1.25;100.00
28354;BME280;15603;50.878;8.036;2023-11-21T10:20:46;143569.88;;;1.28;100.00
28354;BME280;15603;50.878;8.036;2023-11-21T10:23:21;143607.28;;;1.44;100.00
28354;BME280;15603;50.878;8.036;2023-11-21T10:25:51;143502.28;;;1.00;100.00
28354;BME280;15603;50.878;8.036;2023-11-21T10:28:20;143557.78;;;1.23;100.00
28354;BME280;15603;50.878;8.036;2023-11-21T10:30:48;143632.66;;;1.55;100.00
28354;BME280;15603;50.878;8.036;2023-11-21T10:33:16;143637.47;;;1.57;100.00
28354;BME280;15603;50.878;8.036;2023-11-21T10:35:45;143689.44;;;1.79;100.00
28354;BME280;15603;50.878;8.036;2023-11-21T10:38:18;143701.47;;;1.84;100.00
28354;BME280;15603;50.878;8.036;2023-11-21T10:40:47;143729.25;;;1.96;100.00
28354;BME280;15603;50.878;8.036;2023-11-21T10:43:15;143691.81;;;1.80;100.00
28354;BME280;15603;50.878;8.036;2023-11-21T10:45:43;143726.84;;;1.95;100.00
28354;BME280;15603;50.878;8.036;2023-11-21T10:48:13;143746.16;;;2.03;100.00
28354;BME280;15603;50.878;8.036;2023-11-21T10:50:45;143731.69;;;1.97;100.00
28354;BME280;15603;50.878;8.036;2023-11-21T10:53:13;143746.16;;;2.03;100.00
28354;BME280;15603;50.878;8.036;2023-11-21T10:55:41;143711.13;;;1.88;100.00
28354;BME280;15603;50.878;8.036;2023-11-21T10:58:13;143682.16;;;1.76;100.00
28354;BME280;15603;50.878;8.036;2023-11-21T11:00:40;143639.91;;;1.58;100.00
28354;BME280;15603;50.878;8.036;2023-11-21T11:03:09;143736.50;;;1.99;100.00
28354;BME280;15603;50.878;8.036;2023-11-21T11:05:44;143714.75;;;1.90;100.00
28354;BME280;15603;50.878;8.036;2023-11-21T11:08:21;143703.91;;;1.85;100.00
28354;BME280;15603;50.878;8.036;2023-11-21T11:10:53;143724.41;;;1.94;100.00
28354;BME280;15603;50.878;8.036;2023-11-21T11:13:20;143722.03;;;1.93;100.00
28354;BME280;15603;50.878;8.036;2023-11-21T11:15:48;143661.63;;;1.67;100.00
28354;BME280;15603;50.878;8.036;2023-11-21T11:18:16;143750.97;;;2.05;100.00
28354;BME280;15603;50.878;8.036;2023-11-21T11:20:45;143744.97;;;2.03;100.00
28354;BME280;15603;50.878;8.036;2023-11-21T11:26:20;143696.66;;;1.82;100.00
28354;BME280;15603;50.878;8.036;2023-11-21T11:34:43;143680.97;;;1.75;100.00
28354;BME280;15603;50.878;8.036;2023-11-21T11:37:11;143674.91;;;1.73;100.00
28354;BME280;15603;50.878;8.036;2023-11-21T11:39:43;143656.78;;;1.65;100.00
28354;BME280;15603;50.878;8.036;2023-11-21T11:42:16;143664.03;;;1.68;100.00
28354;BME280;15603;50.878;8.036;2023-11-21T11:50:09;143625.41;;;1.52;100.00
28354;BME280;15603;50.878;8.036;2023-11-21T11:52:48;143644.75;;;1.60;100.00
28354;BME280;15603;50.878;8.036;2023-11-21T11:55:20;143559.03;;;1.24;100.00
28354;BME280;15603;50.878;8.036;2023-11-21T11:57:52;143666.44;;;1.69;100.00
28354;BME280;15603;50.878;8.036;2023-11-21T12:00:34;143671.31;;;1.71;100.00
28354;BME280;15603;50.878;8.036;2023-11-21T12:03:06;143699.06;;;1.83;100.00
28354;BME280;15603;50.878;8.036;2023-11-21T12:05:35;143660.41;;;1.67;100.00
28354;BME280;15603;50.878;8.036;2023-11-21T12:08:06;143682.16;;;1.76;100.00
28354;BME280;15603;50.878;8.036;2023-11-21T12:10:36;143676.13;;;1.73;100.00
28354;BME280;15603;50.878;8.036;2023-11-21T12:13:08;143685.78;;;1.77;100.00
28354;BME280;15603;50.878;8.036;2023-11-21T12:15:37;143717.19;;;1.91;100.00
28354;BME280;15603;50.878;8.036;2023-11-21T12:18:06;143610.91;;;1.46;100.00
28354;BME280;15603;50.878;8.036;2023-11-21T12:20:33;143737.69;;;2.00;100.00
28354;BME280;15603;50.878;8.036;2023-11-21T12:23:06;143736.50;;;1.99;100.00
28354;BME280;15603;50.878;8.036;2023-11-21T12:25:35;143676.13;;;1.73;100.00
28354;BME280;15603;50.878;8.036;2023-11-21T12:28:04;143766.72;;;2.12;100.00
28354;BME280;15603;50.878;8.036;2023-11-21T12:30:34;143802.94;;;2.27;100.00
28354;BME280;15603;50.878;8.036;2023-11-21T12:33:05;143837.94;;;2.42;100.00
28354;BME280;15603;50.878;8.036;2023-11-21T12:35:35;143794.50;;;2.24;100.00
28354;BME280;15603;50.878;8.036;2023-11-21T12:38:03;143835.56;;;2.41;100.00
28354;BME280;15603;50.878;8.036;2023-11-21T12:40:31;143784.84;;;2.20;100.00
28354;BME280;15603;50.878;8.036;2023-11-21T12:43:00;143760.63;;;2.09;100.00
28354;BME280;15603;50.878;8.036;2023-11-21T12:45:29;143758.25;;;2.08;100.00
28354;BME280;15603;50.878;8.036;2023-11-21T12:48:03;143715.94;;;1.90;100.00
28354;BME280;15603;50.878;8.036;2023-11-21T12:50:35;143738.91;;;2.00;100.00
28354;BME280;15603;50.878;8.036;2023-11-21T12:53:05;143688.19;;;1.79;100.00
28354;BME280;15603;50.878;8.036;2023-11-21T12:55:35;143676.13;;;1.73;100.00
28354;BME280;15603;50.878;8.036;2023-11-21T12:58:07;143664.03;;;1.68;100.00
28354;BME280;15603;50.878;8.036;2023-11-21T13:00:48;143601.25;;;1.42;100.00
28354;BME280;15603;50.878;8.036;2023-11-21T13:03:17;143707.53;;;1.87;100.00